sensor_id;sensor_type;location;lat;lon;timestamp;temperature;humidity
296;DHT22;132;48.770;9.200;2023-07-29T00:02:32;18.00;1.00
296;DHT22;132;48.770;9.200;2023-07-29T00:05:12;18.00;1.00
296;DHT22;132;48.770;9.200;2023-07-29T00:07:54;18.10;1.00
296;DHT22;132;48.770;9.200;2023-07-29T00:10:37;18.10;1.00
296;DHT22;132;48.770;9.200;2023-07-29T00:13:18;18.10;1.00
296;DHT22;132;48.770;9.200;2023-07-29T00:16:01;18.10;1.00
296;DHT22;132;48.770;9.200;2023-07-29T00:18:43;18.10;1.00
296;DHT22;132;48.770;9.200;2023-07-29T00:21:27;18.10;1.00
296;DHT22;132;48.770;9.200;2023-07-29T00:24:06;18.10;1.00
296;DHT22;132;48.770;9.200;2023-07-29T00:26:45;18.00;1.00
296;DHT22;132;48.770;9.200;2023-07-29T00:29:31;18.10;1.00
296;DHT22;132;48.770;9.200;2023-07-29T00:32:15;18.00;1.00
296;DHT22;132;48.770;9.200;2023-07-29T00:34:57;18.10;1.00
296;DHT22;132;48.770;9.200;2023-07-29T00:37:43;18.10;1.00
296;DHT22;132;48.770;9.200;2023-07-29T00:40:23;18.10;1.00
296;DHT22;132;48.770;9.200;2023-07-29T00:43:04;18.10;1.00
296;DHT22;132;48.770;9.200;2023-07-29T00:45:44;18.20;1.00
296;DHT22;132;48.770;9.200;2023-07-29T00:48:26;18.20;1.00
296;DHT22;132;48.770;9.200;2023-07-29T00:51:11;18.20;1.00
296;DHT22;132;48.770;9.200;2023-07-29T00:53:53;18.20;1.00
296;DHT22;132;48.770;9.200;2023-07-29T00:56:30;18.10;1.00
296;DHT22;132;48.770;9.200;2023-07-29T00:59:15;18.10;1.00
296;DHT22;132;48.770;9.200;2023-07-29T01:01:56;18.10;1.00
296;DHT22;132;48.770;9.200;2023-07-29T01:04:40;18.10;1.00
296;DHT22;132;48.770;9.200;2023-07-29T01:07:32;18.10;1.00
296;DHT22;132;48.770;9.200;2023-07-29T01:10:18;18.10;1.00
296;DHT22;132;48.770;9.200;2023-07-29T01:13:13;18.10;1.00
296;DHT22;132;48.770;9.200;2023-07-29T01:16:14;18.00;1.00
296;DHT22;132;48.770;9.200;2023-07-29T01:19:02;18.00;1.00
296;DHT22;132;48.770;9.200;2023-07-29T01:21:49;18.00;1.00
296;DHT22;132;48.770;9.200;2023-07-29T01:24:27;18.00;1.00
296;DHT22;132;48.770;9.200;2023-07-29T01:27:12;18.00;1.00
296;DHT22;132;48.770;9.200;2023-07-29T01:29:54;18.00;1.00
296;DHT22;132;48.770;9.200;2023-07-29T01:32:58;17.90;1.00
296;DHT22;132;48.770;9.200;2023-07-29T01:35:46;17.90;1.00
296;DHT22;132;48.770;9.200;2023-07-29T01:38:36;17.90;1.00
296;DHT22;132;48.770;9.200;2023-07-29T01:41:17;18.00;1.00
296;DHT22;132;48.770;9.200;2023-07-29T01:43:59;18.00;1.00
296;DHT22;132;48.770;9.200;2023-07-29T01:46:44;18.00;1.00
296;DHT22;132;48.770;9.200;2023-07-29T01:49:25;18.00;1.00
296;DHT22;132;48.770;9.200;2023-07-29T01:52:06;18.00;1.00
296;DHT22;132;48.770;9.200;2023-07-29T01:54:47;18.00;1.00
296;DHT22;132;48.770;9.200;2023-07-29T01:57:27;18.10;1.00
296;DHT22;132;48.770;9.200;2023-07-29T02:00:08;18.10;1.00
296;DHT22;132;48.770;9.200;2023-07-29T02:02:55;18.10;1.00
296;DHT22;132;48.770;9.200;2023-07-29T02:05:33;18.20;1.00
296;DHT22;132;48.770;9.200;2023-07-29T02:08:14;18.20;1.00
296;DHT22;132;48.770;9.200;2023-07-29T02:10:50;18.20;1.00
296;DHT22;132;48.770;9.200;2023-07-29T02:13:23;18.30;1.00
296;DHT22;132;48.770;9.200;2023-07-29T02:15:57;18.20;1.00
296;DHT22;132;48.770;9.200;2023-07-29T02:18:28;18.20;1.00
296;DHT22;132;48.770;9.200;2023-07-29T02:21:01;18.20;1.00
296;DHT22;132;48.770;9.200;2023-07-29T02:23:32;19.60;1.00
296;DHT22;132;48.770;9.200;2023-07-29T02:26:05;18.20;1.00
296;DHT22;132;48.770;9.200;2023-07-29T02:28:37;18.20;1.00
296;DHT22;132;48.770;9.200;2023-07-29T02:31:21;18.10;1.00
296;DHT22;132;48.770;9.200;2023-07-29T02:33:52;18.10;1.00
296;DHT22;132;48.770;9.200;2023-07-29T02:36:27;18.00;1.00
296;DHT22;132;48.770;9.200;2023-07-29T02:38:58;18.00;1.00
296;DHT22;132;48.770;9.200;2023-07-29T02:41:29;18.00;1.00
296;DHT22;132;48.770;9.200;2023-07-29T02:44:01;18.00;1.00
296;DHT22;132;48.770;9.200;2023-07-29T02:46:35;17.90;1.00
296;DHT22;132;48.770;9.200;2023-07-29T02:49:07;18.00;1.00
296;DHT22;132;48.770;9.200;2023-07-29T02:51:39;18.00;1.00
296;DHT22;132;48.770;9.200;2023-07-29T02:54:13;17.90;1.00
296;DHT22;132;48.770;9.200;2023-07-29T02:56:44;17.90;1.00
296;DHT22;132;48.770;9.200;2023-07-29T02:59:17;17.90;1.00
296;DHT22;132;48.770;9.200;2023-07-29T03:01:48;17.90;1.00
296;DHT22;132;48.770;9.200;2023-07-29T03:04:20;17.90;1.00
296;DHT22;132;48.770;9.200;2023-07-29T03:06:51;18.10;1.00
296;DHT22;132;48.770;9.200;2023-07-29T03:09:22;18.00;1.00
296;DHT22;132;48.770;9.200;2023-07-29T03:11:55;18.00;1.00
296;DHT22;132;48.770;9.200;2023-07-29T03:14:26;17.90;1.00
296;DHT22;132;48.770;9.200;2023-07-29T03:17:02;17.90;1.00
296;DHT22;132;48.770;9.200;2023-07-29T03:19:36;17.90;1.00
296;DHT22;132;48.770;9.200;2023-07-29T03:22:08;17.90;1.00
296;DHT22;132;48.770;9.200;2023-07-29T03:24:40;17.90;1.00
296;DHT22;132;48.770;9.200;2023-07-29T03:27:12;18.00;1.00
296;DHT22;132;48.770;9.200;2023-07-29T03:29:45;18.00;1.00
296;DHT22;132;48.770;9.200;2023-07-29T03:32:16;18.00;1.00
296;DHT22;132;48.770;9.200;2023-07-29T03:34:47;18.10;1.00
296;DHT22;132;48.770;9.200;2023-07-29T03:37:19;18.10;1.00
296;DHT22;132;48.770;9.200;2023-07-29T03:39:50;18.20;1.00
296;DHT22;132;48.770;9.200;2023-07-29T03:42:23;18.20;1.00
296;DHT22;132;48.770;9.200;2023-07-29T03:44:54;18.20;1.00
296;DHT22;132;48.770;9.200;2023-07-29T03:47:26;18.20;1.00
296;DHT22;132;48.770;9.200;2023-07-29T03:49:59;18.30;1.00
296;DHT22;132;48.770;9.200;2023-07-29T03:52:32;18.30;1.00
296;DHT22;132;48.770;9.200;2023-07-29T03:55:03;18.30;1.00
296;DHT22;132;48.770;9.200;2023-07-29T03:57:34;18.30;1.00
296;DHT22;132;48.770;9.200;2023-07-29T04:00:05;18.40;1.00
296;DHT22;132;48.770;9.200;2023-07-29T04:02:46;18.40;1.00
296;DHT22;132;48.770;9.200;2023-07-29T04:05:18;18.40;1.00
296;DHT22;132;48.770;9.200;2023-07-29T04:07:50;18.40;1.00
296;DHT22;132;48.770;9.200;2023-07-29T04:10:23;18.40;1.00
296;DHT22;132;48.770;9.200;2023-07-29T04:12:54;18.40;1.00
296;DHT22;132;48.770;9.200;2023-07-29T04:15:24;18.30;1.00
296;DHT22;132;48.770;9.200;2023-07-29T04:17:55;18.30;1.00
296;DHT22;132;48.770;9.200;2023-07-29T04:20:27;18.20;1.00
296;DHT22;132;48.770;9.200;2023-07-29T04:23:00;18.20;1.00
296;DHT22;132;48.770;9.200;2023-07-29T04:25:32;18.10;1.00
296;DHT22;132;48.770;9.200;2023-07-29T04:28:04;18.10;1.00
296;DHT22;132;48.770;9.200;2023-07-29T04:30:37;18.10;1.00
296;DHT22;132;48.770;9.200;2023-07-29T04:33:09;18.20;1.00
296;DHT22;132;48.770;9.200;2023-07-29T04:35:44;18.20;1.00
296;DHT22;132;48.770;9.200;2023-07-29T04:38:15;18.20;1.00
296;DHT22;132;48.770;9.200;2023-07-29T04:40:51;18.20;1.00
296;DHT22;132;48.770;9.200;2023-07-29T04:43:23;18.20;1.00
296;DHT22;132;48.770;9.200;2023-07-29T04:45:58;18.20;1.00
296;DHT22;132;48.770;9.200;2023-07-29T04:48:30;18.20;1.00
296;DHT22;132;48.770;9.200;2023-07-29T04:51:04;18.20;1.00
296;DHT22;132;48.770;9.200;2023-07-29T04:53:35;18.20;1.00
296;DHT22;132;48.770;9.200;2023-07-29T04:56:07;18.20;1.00
296;DHT22;132;48.770;9.200;2023-07-29T04:58:41;18.10;1.00
296;DHT22;132;48.770;9.200;2023-07-29T05:01:15;18.10;1.00
296;DHT22;132;48.770;9.200;2023-07-29T05:03:47;18.00;1.00
296;DHT22;132;48.770;9.200;2023-07-29T05:06:19;18.00;1.00
296;DHT22;132;48.770;9.200;2023-07-29T05:08:51;18.00;1.00
296;DHT22;132;48.770;9.200;2023-07-29T05:11:23;18.00;1.00
296;DHT22;132;48.770;9.200;2023-07-29T05:13:55;18.00;1.00
296;DHT22;132;48.770;9.200;2023-07-29T05:16:28;18.00;1.00
296;DHT22;132;48.770;9.200;2023-07-29T05:18:59;18.00;1.00
296;DHT22;132;48.770;9.200;2023-07-29T05:21:30;18.10;1.00
296;DHT22;132;48.770;9.200;2023-07-29T05:24:04;18.10;1.00
296;DHT22;132;48.770;9.200;2023-07-29T05:26:37;18.20;1.00
296;DHT22;132;48.770;9.200;2023-07-29T05:29:11;18.20;1.00
296;DHT22;132;48.770;9.200;2023-07-29T05:31:45;18.20;1.00
296;DHT22;132;48.770;9.200;2023-07-29T05:34:16;18.30;1.00
296;DHT22;132;48.770;9.200;2023-07-29T05:36:47;18.30;1.00
296;DHT22;132;48.770;9.200;2023-07-29T05:39:19;18.30;1.00
296;DHT22;132;48.770;9.200;2023-07-29T05:41:53;18.30;1.00
296;DHT22;132;48.770;9.200;2023-07-29T05:44:25;18.40;1.00
296;DHT22;132;48.770;9.200;2023-07-29T05:46:57;18.40;1.00
296;DHT22;132;48.770;9.200;2023-07-29T05:49:32;18.40;1.00
296;DHT22;132;48.770;9.200;2023-07-29T05:52:05;18.50;1.00
296;DHT22;132;48.770;9.200;2023-07-29T05:54:36;18.50;1.00
296;DHT22;132;48.770;9.200;2023-07-29T05:57:08;18.60;1.00
296;DHT22;132;48.770;9.200;2023-07-29T05:59:42;18.60;1.00
296;DHT22;132;48.770;9.200;2023-07-29T06:02:14;18.70;1.00
296;DHT22;132;48.770;9.200;2023-07-29T06:04:48;18.70;1.00
296;DHT22;132;48.770;9.200;2023-07-29T06:07:20;18.80;1.00
296;DHT22;132;48.770;9.200;2023-07-29T06:09:52;19.00;1.00
296;DHT22;132;48.770;9.200;2023-07-29T06:12:26;19.10;1.00
296;DHT22;132;48.770;9.200;2023-07-29T06:15:00;19.20;1.00
296;DHT22;132;48.770;9.200;2023-07-29T06:17:32;19.30;1.00
296;DHT22;132;48.770;9.200;2023-07-29T06:20:04;19.30;1.00
296;DHT22;132;48.770;9.200;2023-07-29T06:22:37;19.40;1.00
296;DHT22;132;48.770;9.200;2023-07-29T06:25:09;19.50;1.00
296;DHT22;132;48.770;9.200;2023-07-29T06:27:42;19.70;1.00
296;DHT22;132;48.770;9.200;2023-07-29T06:30:17;19.90;1.00
296;DHT22;132;48.770;9.200;2023-07-29T06:32:50;20.00;1.00
296;DHT22;132;48.770;9.200;2023-07-29T06:35:20;20.00;1.00
296;DHT22;132;48.770;9.200;2023-07-29T06:37:53;20.10;1.00
296;DHT22;132;48.770;9.200;2023-07-29T06:40:28;20.10;1.00
296;DHT22;132;48.770;9.200;2023-07-29T06:43:01;20.00;1.00
296;DHT22;132;48.770;9.200;2023-07-29T06:45:32;20.00;1.00
296;DHT22;132;48.770;9.200;2023-07-29T06:48:05;19.90;1.00
296;DHT22;132;48.770;9.200;2023-07-29T06:50:36;19.90;1.00
296;DHT22;132;48.770;9.200;2023-07-29T06:53:11;19.90;1.00
296;DHT22;132;48.770;9.200;2023-07-29T06:55:44;19.90;1.00
296;DHT22;132;48.770;9.200;2023-07-29T06:58:16;19.90;1.00
296;DHT22;132;48.770;9.200;2023-07-29T07:00:49;19.70;1.00
296;DHT22;132;48.770;9.200;2023-07-29T07:03:21;19.60;1.00
296;DHT22;132;48.770;9.200;2023-07-29T07:05:52;19.50;1.00
296;DHT22;132;48.770;9.200;2023-07-29T07:08:25;19.40;1.00
296;DHT22;132;48.770;9.200;2023-07-29T07:10:56;19.30;1.00
296;DHT22;132;48.770;9.200;2023-07-29T07:13:28;19.20;1.00
296;DHT22;132;48.770;9.200;2023-07-29T07:16:00;19.10;1.00
296;DHT22;132;48.770;9.200;2023-07-29T07:18:31;19.10;1.00
296;DHT22;132;48.770;9.200;2023-07-29T07:21:02;19.10;1.00
296;DHT22;132;48.770;9.200;2023-07-29T07:23:35;19.00;1.00
296;DHT22;132;48.770;9.200;2023-07-29T07:26:08;19.00;1.00
296;DHT22;132;48.770;9.200;2023-07-29T07:28:43;19.00;1.00
296;DHT22;132;48.770;9.200;2023-07-29T07:31:15;18.90;1.00
296;DHT22;132;48.770;9.200;2023-07-29T07:33:47;19.00;1.00
296;DHT22;132;48.770;9.200;2023-07-29T07:36:19;19.00;1.00
296;DHT22;132;48.770;9.200;2023-07-29T07:38:49;19.00;1.00
296;DHT22;132;48.770;9.200;2023-07-29T07:41:21;19.10;1.00
296;DHT22;132;48.770;9.200;2023-07-29T07:43:54;19.10;1.00
296;DHT22;132;48.770;9.200;2023-07-29T07:46:26;19.10;1.00
296;DHT22;132;48.770;9.200;2023-07-29T07:48:57;19.10;1.00
296;DHT22;132;48.770;9.200;2023-07-29T07:51:29;19.10;1.00
296;DHT22;132;48.770;9.200;2023-07-29T07:54:01;19.20;1.00
296;DHT22;132;48.770;9.200;2023-07-29T07:56:34;19.20;1.00
296;DHT22;132;48.770;9.200;2023-07-29T07:59:06;19.20;1.00
296;DHT22;132;48.770;9.200;2023-07-29T08:01:39;19.30;1.00
296;DHT22;132;48.770;9.200;2023-07-29T08:04:13;19.40;1.00
296;DHT22;132;48.770;9.200;2023-07-29T08:06:44;19.50;1.00
296;DHT22;132;48.770;9.200;2023-07-29T08:09:17;19.60;1.00
296;DHT22;132;48.770;9.200;2023-07-29T08:11:49;19.60;1.00
296;DHT22;132;48.770;9.200;2023-07-29T08:14:19;19.70;1.00
296;DHT22;132;48.770;9.200;2023-07-29T08:16:52;19.80;1.00
296;DHT22;132;48.770;9.200;2023-07-29T08:19:25;20.00;1.00
296;DHT22;132;48.770;9.200;2023-07-29T08:21:59;20.40;1.00
296;DHT22;132;48.770;9.200;2023-07-29T08:24:32;20.70;1.00
296;DHT22;132;48.770;9.200;2023-07-29T08:27:04;20.70;1.00
296;DHT22;132;48.770;9.200;2023-07-29T08:29:37;20.60;1.00
296;DHT22;132;48.770;9.200;2023-07-29T08:32:09;20.60;1.00
296;DHT22;132;48.770;9.200;2023-07-29T08:34:40;20.60;1.00
296;DHT22;132;48.770;9.200;2023-07-29T08:37:13;20.60;1.00
296;DHT22;132;48.770;9.200;2023-07-29T08:39:45;20.60;1.00
296;DHT22;132;48.770;9.200;2023-07-29T08:42:19;20.70;1.00
296;DHT22;132;48.770;9.200;2023-07-29T08:44:51;20.90;1.00
296;DHT22;132;48.770;9.200;2023-07-29T08:47:26;21.00;1.00
296;DHT22;132;48.770;9.200;2023-07-29T08:49:59;21.10;1.00
296;DHT22;132;48.770;9.200;2023-07-29T08:52:32;21.30;1.00
296;DHT22;132;48.770;9.200;2023-07-29T08:55:08;21.80;1.00
296;DHT22;132;48.770;9.200;2023-07-29T08:57:41;22.60;1.00
296;DHT22;132;48.770;9.200;2023-07-29T09:00:13;22.90;1.00
296;DHT22;132;48.770;9.200;2023-07-29T09:02:46;23.40;1.00
296;DHT22;132;48.770;9.200;2023-07-29T09:05:21;24.10;1.00
296;DHT22;132;48.770;9.200;2023-07-29T09:07:54;24.30;1.00
296;DHT22;132;48.770;9.200;2023-07-29T09:10:27;24.20;1.00
296;DHT22;132;48.770;9.200;2023-07-29T09:13:01;24.40;1.00
296;DHT22;132;48.770;9.200;2023-07-29T09:15:37;24.10;1.00
296;DHT22;132;48.770;9.200;2023-07-29T09:18:15;23.80;1.00
296;DHT22;132;48.770;9.200;2023-07-29T09:20:50;23.40;1.00
296;DHT22;132;48.770;9.200;2023-07-29T09:23:26;23.30;1.00
296;DHT22;132;48.770;9.200;2023-07-29T09:26:02;23.40;1.00
296;DHT22;132;48.770;9.200;2023-07-29T09:28:37;23.40;1.00
296;DHT22;132;48.770;9.200;2023-07-29T09:31:19;23.80;1.00
296;DHT22;132;48.770;9.200;2023-07-29T09:34:03;24.00;1.00
296;DHT22;132;48.770;9.200;2023-07-29T09:36:36;24.20;1.00
296;DHT22;132;48.770;9.200;2023-07-29T09:39:11;24.10;1.00
296;DHT22;132;48.770;9.200;2023-07-29T09:41:47;24.00;1.00
296;DHT22;132;48.770;9.200;2023-07-29T09:44:20;24.00;1.00
296;DHT22;132;48.770;9.200;2023-07-29T09:46:52;23.90;1.00
296;DHT22;132;48.770;9.200;2023-07-29T09:49:26;23.80;1.00
296;DHT22;132;48.770;9.200;2023-07-29T09:52:01;24.00;1.00
296;DHT22;132;48.770;9.200;2023-07-29T09:54:39;24.10;1.00
296;DHT22;132;48.770;9.200;2023-07-29T09:57:18;24.10;1.00
296;DHT22;132;48.770;9.200;2023-07-29T09:59:54;24.20;1.00
296;DHT22;132;48.770;9.200;2023-07-29T10:02:29;24.30;1.00
296;DHT22;132;48.770;9.200;2023-07-29T10:05:02;24.80;1.00
296;DHT22;132;48.770;9.200;2023-07-29T10:07:39;26.10;1.00
296;DHT22;132;48.770;9.200;2023-07-29T10:10:11;26.60;1.00
296;DHT22;132;48.770;9.200;2023-07-29T10:12:44;27.20;1.00
296;DHT22;132;48.770;9.200;2023-07-29T10:15:17;27.20;1.00
296;DHT22;132;48.770;9.200;2023-07-29T10:17:51;27.30;1.00
296;DHT22;132;48.770;9.200;2023-07-29T10:20:28;27.30;1.00
296;DHT22;132;48.770;9.200;2023-07-29T10:23:06;27.50;1.00
296;DHT22;132;48.770;9.200;2023-07-29T10:25:43;27.80;1.00
296;DHT22;132;48.770;9.200;2023-07-29T10:28:20;28.00;1.00
296;DHT22;132;48.770;9.200;2023-07-29T10:30:58;28.40;1.00
296;DHT22;132;48.770;9.200;2023-07-29T10:33:32;28.90;1.00
296;DHT22;132;48.770;9.200;2023-07-29T10:36:06;29.30;1.00
296;DHT22;132;48.770;9.200;2023-07-29T10:38:38;29.10;1.00
296;DHT22;132;48.770;9.200;2023-07-29T10:41:10;28.40;1.00
296;DHT22;132;48.770;9.200;2023-07-29T10:43:42;28.10;1.00
296;DHT22;132;48.770;9.200;2023-07-29T10:46:18;28.00;1.00
296;DHT22;132;48.770;9.200;2023-07-29T10:54:11;27.20;1.00
296;DHT22;132;48.770;9.200;2023-07-29T10:56:48;27.00;1.00
296;DHT22;132;48.770;9.200;2023-07-29T11:01:54;28.50;1.00
296;DHT22;132;48.770;9.200;2023-07-29T11:04:30;28.50;1.00
296;DHT22;132;48.770;9.200;2023-07-29T11:09:45;28.60;1.00
296;DHT22;132;48.770;9.200;2023-07-29T11:12:48;28.50;1.00
296;DHT22;132;48.770;9.200;2023-07-29T11:15:28;28.90;1.00
296;DHT22;132;48.770;9.200;2023-07-29T11:18:01;28.70;1.00
296;DHT22;132;48.770;9.200;2023-07-29T11:20:33;28.50;1.00
296;DHT22;132;48.770;9.200;2023-07-29T11:23:05;28.30;1.00
296;DHT22;132;48.770;9.200;2023-07-29T11:25:38;28.20;1.00
296;DHT22;132;48.770;9.200;2023-07-29T11:28:10;27.90;1.00
296;DHT22;132;48.770;9.200;2023-07-29T11:30:41;27.60;1.00
296;DHT22;132;48.770;9.200;2023-07-29T11:33:18;27.10;1.00
296;DHT22;132;48.770;9.200;2023-07-29T11:35:51;27.00;1.00
296;DHT22;132;48.770;9.200;2023-07-29T11:38:24;26.70;1.00
296;DHT22;132;48.770;9.200;2023-07-29T11:41:01;26.60;1.00
296;DHT22;132;48.770;9.200;2023-07-29T11:43:37;26.60;1.00
296;DHT22;132;48.770;9.200;2023-07-29T11:46:10;26.40;1.00
296;DHT22;132;48.770;9.200;2023-07-29T11:48:45;26.30;1.00
296;DHT22;132;48.770;9.200;2023-07-29T11:51:16;26.30;1.00
296;DHT22;132;48.770;9.200;2023-07-29T11:53:48;26.40;1.00
296;DHT22;132;48.770;9.200;2023-07-29T11:56:21;26.50;1.00
296;DHT22;132;48.770;9.200;2023-07-29T11:58:55;26.90;1.00
296;DHT22;132;48.770;9.200;2023-07-29T12:01:28;27.20;1.00
296;DHT22;132;48.770;9.200;2023-07-29T12:04:01;27.40;1.00
296;DHT22;132;48.770;9.200;2023-07-29T12:06:33;27.50;1.00
296;DHT22;132;48.770;9.200;2023-07-29T12:09:07;27.40;1.00
296;DHT22;132;48.770;9.200;2023-07-29T12:11:40;27.50;1.00
296;DHT22;132;48.770;9.200;2023-07-29T12:14:14;27.50;1.00
296;DHT22;132;48.770;9.200;2023-07-29T12:16:48;27.50;1.00
296;DHT22;132;48.770;9.200;2023-07-29T12:19:21;27.60;1.00
296;DHT22;132;48.770;9.200;2023-07-29T12:21:55;27.50;1.00
296;DHT22;132;48.770;9.200;2023-07-29T12:24:29;27.30;1.00
296;DHT22;132;48.770;9.200;2023-07-29T12:27:03;27.30;1.00
296;DHT22;132;48.770;9.200;2023-07-29T12:29:40;27.30;1.00
296;DHT22;132;48.770;9.200;2023-07-29T12:32:14;27.40;1.00
296;DHT22;132;48.770;9.200;2023-07-29T12:34:45;27.60;1.00
296;DHT22;132;48.770;9.200;2023-07-29T12:37:17;27.80;1.00
296;DHT22;132;48.770;9.200;2023-07-29T12:39:50;27.90;1.00
296;DHT22;132;48.770;9.200;2023-07-29T12:42:22;27.90;1.00
296;DHT22;132;48.770;9.200;2023-07-29T12:44:55;27.90;1.00
296;DHT22;132;48.770;9.200;2023-07-29T12:47:25;27.90;1.00
296;DHT22;132;48.770;9.200;2023-07-29T12:49:59;27.80;1.00
296;DHT22;132;48.770;9.200;2023-07-29T12:52:30;27.90;1.00
296;DHT22;132;48.770;9.200;2023-07-29T12:55:03;27.90;1.00
296;DHT22;132;48.770;9.200;2023-07-29T12:57:35;27.80;1.00
296;DHT22;132;48.770;9.200;2023-07-29T13:00:10;27.60;1.00
296;DHT22;132;48.770;9.200;2023-07-29T13:02:42;27.60;1.00
296;DHT22;132;48.770;9.200;2023-07-29T13:05:15;27.60;1.00
296;DHT22;132;48.770;9.200;2023-07-29T13:07:47;27.50;1.00
296;DHT22;132;48.770;9.200;2023-07-29T13:10:20;27.50;1.00
296;DHT22;132;48.770;9.200;2023-07-29T13:12:52;27.50;1.00
296;DHT22;132;48.770;9.200;2023-07-29T13:15:25;27.50;1.00
296;DHT22;132;48.770;9.200;2023-07-29T13:17:58;27.50;1.00
296;DHT22;132;48.770;9.200;2023-07-29T13:20:30;27.40;1.00
296;DHT22;132;48.770;9.200;2023-07-29T13:23:01;27.20;1.00
296;DHT22;132;48.770;9.200;2023-07-29T13:25:34;27.10;1.00
296;DHT22;132;48.770;9.200;2023-07-29T13:28:11;27.00;1.00
296;DHT22;132;48.770;9.200;2023-07-29T13:30:46;27.00;1.00
296;DHT22;132;48.770;9.200;2023-07-29T13:33:18;26.90;1.00
296;DHT22;132;48.770;9.200;2023-07-29T13:35:51;26.80;1.00
296;DHT22;132;48.770;9.200;2023-07-29T13:38:23;26.70;1.00
296;DHT22;132;48.770;9.200;2023-07-29T13:40:54;26.60;1.00
296;DHT22;132;48.770;9.200;2023-07-29T13:43:27;26.50;1.00
296;DHT22;132;48.770;9.200;2023-07-29T13:46:00;26.50;1.00
296;DHT22;132;48.770;9.200;2023-07-29T13:48:32;26.50;1.00
296;DHT22;132;48.770;9.200;2023-07-29T13:51:05;26.50;1.00
296;DHT22;132;48.770;9.200;2023-07-29T13:53:39;26.50;1.00
296;DHT22;132;48.770;9.200;2023-07-29T13:56:10;26.60;1.00
296;DHT22;132;48.770;9.200;2023-07-29T13:58:44;26.70;1.00
296;DHT22;132;48.770;9.200;2023-07-29T14:01:17;26.70;1.00
296;DHT22;132;48.770;9.200;2023-07-29T14:03:50;26.70;1.00
296;DHT22;132;48.770;9.200;2023-07-29T14:06:23;26.70;1.00
296;DHT22;132;48.770;9.200;2023-07-29T14:08:55;26.70;1.00
296;DHT22;132;48.770;9.200;2023-07-29T14:11:29;26.70;1.00
296;DHT22;132;48.770;9.200;2023-07-29T14:14:03;26.70;1.00
296;DHT22;132;48.770;9.200;2023-07-29T14:16:35;26.60;1.00
296;DHT22;132;48.770;9.200;2023-07-29T14:19:07;26.60;1.00
296;DHT22;132;48.770;9.200;2023-07-29T14:21:39;26.60;1.00
296;DHT22;132;48.770;9.200;2023-07-29T14:24:12;26.50;1.00
296;DHT22;132;48.770;9.200;2023-07-29T14:26:46;26.40;1.00
296;DHT22;132;48.770;9.200;2023-07-29T14:29:18;26.40;1.00
296;DHT22;132;48.770;9.200;2023-07-29T14:31:51;26.40;1.00
296;DHT22;132;48.770;9.200;2023-07-29T14:34:26;26.30;1.00
296;DHT22;132;48.770;9.200;2023-07-29T14:37:01;26.20;1.00
296;DHT22;132;48.770;9.200;2023-07-29T14:39:31;26.20;1.00
296;DHT22;132;48.770;9.200;2023-07-29T14:42:05;26.10;1.00
296;DHT22;132;48.770;9.200;2023-07-29T14:44:37;26.00;1.00
296;DHT22;132;48.770;9.200;2023-07-29T14:47:11;26.00;1.00
296;DHT22;132;48.770;9.200;2023-07-29T14:49:44;26.00;1.00
296;DHT22;132;48.770;9.200;2023-07-29T14:52:18;26.00;1.00
296;DHT22;132;48.770;9.200;2023-07-29T14:54:49;26.00;1.00
296;DHT22;132;48.770;9.200;2023-07-29T14:57:20;26.00;1.00
296;DHT22;132;48.770;9.200;2023-07-29T14:59:53;25.90;1.00
296;DHT22;132;48.770;9.200;2023-07-29T15:02:25;25.90;1.00
296;DHT22;132;48.770;9.200;2023-07-29T15:04:59;26.00;1.00
296;DHT22;132;48.770;9.200;2023-07-29T15:07:31;26.10;1.00
296;DHT22;132;48.770;9.200;2023-07-29T15:10:03;26.20;1.00
296;DHT22;132;48.770;9.200;2023-07-29T15:12:35;26.20;1.00
296;DHT22;132;48.770;9.200;2023-07-29T15:15:09;26.20;1.00
296;DHT22;132;48.770;9.200;2023-07-29T15:17:43;26.20;1.00
296;DHT22;132;48.770;9.200;2023-07-29T15:20:16;26.20;1.00
296;DHT22;132;48.770;9.200;2023-07-29T15:22:47;26.10;1.00
296;DHT22;132;48.770;9.200;2023-07-29T15:25:19;26.10;1.00
296;DHT22;132;48.770;9.200;2023-07-29T15:27:52;26.10;1.00
296;DHT22;132;48.770;9.200;2023-07-29T15:30:24;26.10;1.00
296;DHT22;132;48.770;9.200;2023-07-29T15:32:55;26.10;1.00
296;DHT22;132;48.770;9.200;2023-07-29T15:35:27;26.10;1.00
296;DHT22;132;48.770;9.200;2023-07-29T15:38:05;26.10;1.00
296;DHT22;132;48.770;9.200;2023-07-29T15:40:38;26.20;1.00
296;DHT22;132;48.770;9.200;2023-07-29T15:43:11;26.30;1.00
296;DHT22;132;48.770;9.200;2023-07-29T15:45:46;26.30;1.00
296;DHT22;132;48.770;9.200;2023-07-29T15:48:19;26.30;1.00
296;DHT22;132;48.770;9.200;2023-07-29T15:50:53;26.30;1.00
296;DHT22;132;48.770;9.200;2023-07-29T15:53:26;26.20;1.00
296;DHT22;132;48.770;9.200;2023-07-29T15:55:57;26.20;1.00
296;DHT22;132;48.770;9.200;2023-07-29T15:58:30;26.20;1.00
296;DHT22;132;48.770;9.200;2023-07-29T16:01:00;26.30;1.00
296;DHT22;132;48.770;9.200;2023-07-29T16:03:32;26.20;1.00
296;DHT22;132;48.770;9.200;2023-07-29T16:06:02;26.30;1.00
296;DHT22;132;48.770;9.200;2023-07-29T16:08:35;26.40;1.00
296;DHT22;132;48.770;9.200;2023-07-29T16:11:08;26.40;1.00
296;DHT22;132;48.770;9.200;2023-07-29T16:13:41;26.40;1.00
296;DHT22;132;48.770;9.200;2023-07-29T16:16:13;26.50;1.00
296;DHT22;132;48.770;9.200;2023-07-29T16:18:46;26.60;1.00
296;DHT22;132;48.770;9.200;2023-07-29T16:21:21;26.60;1.00
296;DHT22;132;48.770;9.200;2023-07-29T16:23:54;26.50;1.00
296;DHT22;132;48.770;9.200;2023-07-29T16:26:27;26.50;1.00
296;DHT22;132;48.770;9.200;2023-07-29T16:28:59;26.40;1.00
296;DHT22;132;48.770;9.200;2023-07-29T16:31:33;26.40;1.00
296;DHT22;132;48.770;9.200;2023-07-29T16:34:07;26.40;1.00
296;DHT22;132;48.770;9.200;2023-07-29T16:36:40;26.30;1.00
296;DHT22;132;48.770;9.200;2023-07-29T16:39:13;26.30;1.00
296;DHT22;132;48.770;9.200;2023-07-29T16:41:48;26.40;1.00
296;DHT22;132;48.770;9.200;2023-07-29T16:44:22;26.40;1.00
296;DHT22;132;48.770;9.200;2023-07-29T16:46:55;26.30;1.00
296;DHT22;132;48.770;9.200;2023-07-29T16:49:29;26.20;1.00
296;DHT22;132;48.770;9.200;2023-07-29T16:52:01;26.10;1.00
296;DHT22;132;48.770;9.200;2023-07-29T16:54:34;26.00;1.00
296;DHT22;132;48.770;9.200;2023-07-29T16:57:06;26.00;1.00
296;DHT22;132;48.770;9.200;2023-07-29T16:59:40;26.00;1.00
296;DHT22;132;48.770;9.200;2023-07-29T17:02:15;26.00;1.00
296;DHT22;132;48.770;9.200;2023-07-29T17:04:47;25.90;1.00
296;DHT22;132;48.770;9.200;2023-07-29T17:07:19;25.90;1.00
296;DHT22;132;48.770;9.200;2023-07-29T17:09:55;25.80;1.00
296;DHT22;132;48.770;9.200;2023-07-29T17:12:30;25.70;1.00
296;DHT22;132;48.770;9.200;2023-07-29T17:15:05;25.60;1.00
296;DHT22;132;48.770;9.200;2023-07-29T17:17:41;25.50;1.00
296;DHT22;132;48.770;9.200;2023-07-29T17:20:15;25.30;1.00
296;DHT22;132;48.770;9.200;2023-07-29T17:22:45;25.20;1.00
296;DHT22;132;48.770;9.200;2023-07-29T17:25:19;25.10;1.00
296;DHT22;132;48.770;9.200;2023-07-29T17:27:52;25.00;1.00
296;DHT22;132;48.770;9.200;2023-07-29T17:30:27;24.90;1.00
296;DHT22;132;48.770;9.200;2023-07-29T17:33:02;24.70;1.00
296;DHT22;132;48.770;9.200;2023-07-29T17:35:35;24.20;1.00
296;DHT22;132;48.770;9.200;2023-07-29T17:38:07;23.60;1.00
296;DHT22;132;48.770;9.200;2023-07-29T17:40:39;23.10;1.00
296;DHT22;132;48.770;9.200;2023-07-29T17:43:10;22.40;1.00
296;DHT22;132;48.770;9.200;2023-07-29T17:45:41;22.10;1.00
296;DHT22;132;48.770;9.200;2023-07-29T17:48:12;21.90;1.00
296;DHT22;132;48.770;9.200;2023-07-29T17:50:42;21.70;1.00